Accueil
METAR-TAF:

METAR-TAF

Aéroports :

Kuala Lumpur, Malaisie

Aéroport international de Kuala Lumpur

latitude: 02-44N, longitude: 101-42E, altitude: 21 m

Observation

Le bulletin a été fait il y a 41 minutes, à 00:00 UTC
Vent 2 kt de direction variable
Température 26°C
Humidité 94%
Pression 1009 hPa
Visibilité: 6000 m
Nuages épars à une hauteur de 2000 ft
Nuages épars à une hauteur de 14000 ft
Nuages fragmentés à une hauteur de 28000 ft

METAR: WMKK 270000Z VRB02KT 6000 SCT020 SCT140 BKN280 26/25 Q1009 NOSIG

Heure: 08:41 (00:41 UTC)

Prévision

Le bulletin a été fait il y a 1 heure et 41 minutes, à 23:00 UTC
Prévision valable du 27 à 00 UTC au 28 à 06 UTC
Vent 5 kt de sud/sud-est
Visibilité: 9000 m
Quelques nuages à une hauteur de 1800 ft
Nuages épars à une hauteur de 14000 ft
Nuages fragmentés à une hauteur de 28000 ft

TAF: WMKK 262300Z 2700/2806 16005KT 9000 FEW018 SCT140 BKN280

Observations et prévisions météorologiques de plus de 4000 aéroports (messages METAR et TAF).

Les stations disponibles sont représentées par des disques jaunes et rouges sur la carte.

Passer la souris dessus pour voir le nom de la station.

Cliquer dessus pour voir les observations et prévisions météorologiques.

Pour changer de carte: cliquez sur les boutons verts avec une croix noire pour zoomer, sur le bouton vert avec un tiret pour effectuer un zoom arrière, ou sur les flèches vertes pour les cartes adjacentes.


METAR-TAF: